ANZ093 YMML-NZDN
Flight info
| Callsign | ANZ093 |
|---|---|
| Flight time | N/A |
| Altitude | 35000 |
| Route | CORRS Y21 DADAD P753 SMIFF/N0447F370 P753 ADKOS |
| Aircraft | A320/M-SDE3FGHIRWY/LB1 |
Departure
| Time | N/A |
|---|---|
| Airport | Melbourne Airport (YMML) |
Arrival
| Time | 2026-04-28 10:13 |
|---|---|
| Airport | Dunedin International Airport (NZDN) |
| Time | Latitude | Longitude | Altitude | Speed | Heading |
|---|---|---|---|---|---|
| 2026-04-28 09:03 | -43.26150 | 160.68091 | 36311 ft | 459 kts | 111° |
| 2026-04-28 09:04 | -43.27190 | 160.72236 | 36310 ft | 459 kts | 111° |
| 2026-04-28 09:04 | -43.29270 | 160.80517 | 36311 ft | 459 kts | 111° |
| 2026-04-28 09:05 | -43.31343 | 160.88806 | 36312 ft | 459 kts | 111° |
| 2026-04-28 09:05 | -43.33401 | 160.97093 | 36307 ft | 459 kts | 111° |
| 2026-04-28 09:06 | -43.35454 | 161.05398 | 36311 ft | 459 kts | 111° |
| 2026-04-28 09:06 | -43.37506 | 161.13696 | 36314 ft | 458 kts | 111° |
| 2026-04-28 09:07 | -43.39550 | 161.21989 | 36315 ft | 458 kts | 111° |
| 2026-04-28 09:07 | -43.41569 | 161.30255 | 36312 ft | 458 kts | 110° |
| 2026-04-28 09:08 | -43.43599 | 161.38567 | 36315 ft | 458 kts | 110° |
| 2026-04-28 09:08 | -43.45623 | 161.46887 | 36311 ft | 458 kts | 110° |
| 2026-04-28 09:09 | -43.47633 | 161.55213 | 36311 ft | 458 kts | 110° |
| 2026-04-28 09:09 | -43.49651 | 161.63542 | 36312 ft | 458 kts | 110° |
| 2026-04-28 09:10 | -43.51663 | 161.71875 | 36315 ft | 458 kts | 110° |
| 2026-04-28 09:10 | -43.53658 | 161.80212 | 36315 ft | 458 kts | 110° |
| 2026-04-28 09:11 | -43.55649 | 161.88554 | 36317 ft | 458 kts | 110° |
| 2026-04-28 09:11 | -43.57620 | 161.96850 | 36316 ft | 458 kts | 110° |
| 2026-04-28 09:12 | -43.59600 | 162.05198 | 36315 ft | 458 kts | 110° |
| 2026-04-28 09:12 | -43.61577 | 162.13562 | 36318 ft | 458 kts | 110° |
| 2026-04-28 09:13 | -43.63542 | 162.21911 | 36317 ft | 458 kts | 110° |
| 2026-04-28 09:13 | -43.65499 | 162.30272 | 36314 ft | 457 kts | 110° |
| 2026-04-28 09:14 | -43.67447 | 162.38633 | 36318 ft | 457 kts | 110° |
| 2026-04-28 09:14 | -43.69064 | 162.45584 | 36317 ft | 457 kts | 110° |
| 2026-04-28 09:15 | -43.71339 | 162.55358 | 36319 ft | 457 kts | 110° |
| 2026-04-28 09:15 | -43.72944 | 162.62316 | 36318 ft | 457 kts | 110° |
| 2026-04-28 09:16 | -43.74866 | 162.70696 | 36319 ft | 457 kts | 110° |
| 2026-04-28 09:16 | -43.76784 | 162.79078 | 36320 ft | 457 kts | 110° |
| 2026-04-28 09:17 | -43.78701 | 162.87463 | 36316 ft | 457 kts | 110° |
| 2026-04-28 09:17 | -43.80616 | 162.95849 | 36317 ft | 457 kts | 110° |
| 2026-04-28 09:18 | -43.82519 | 163.04238 | 36317 ft | 457 kts | 109° |
| 2026-04-28 09:18 | -43.84415 | 163.12635 | 36319 ft | 457 kts | 109° |
| 2026-04-28 09:19 | -43.86301 | 163.21036 | 36315 ft | 457 kts | 109° |
| 2026-04-28 09:19 | -43.88180 | 163.29451 | 36322 ft | 457 kts | 109° |
| 2026-04-28 09:20 | -43.90059 | 163.37859 | 36316 ft | 456 kts | 109° |
| 2026-04-28 09:20 | -43.91911 | 163.46215 | 36315 ft | 456 kts | 109° |
| 2026-04-28 09:21 | -43.93768 | 163.54644 | 36316 ft | 456 kts | 109° |
| 2026-04-28 09:21 | -43.95625 | 163.63065 | 36318 ft | 456 kts | 109° |
| 2026-04-28 09:22 | -43.97481 | 163.71493 | 36317 ft | 456 kts | 109° |
| 2026-04-28 09:22 | -43.99320 | 163.79927 | 36320 ft | 456 kts | 109° |
| 2026-04-28 09:23 | -44.01154 | 163.88367 | 36320 ft | 456 kts | 109° |
| 2026-04-28 09:23 | -44.02980 | 163.96802 | 36320 ft | 456 kts | 109° |
| 2026-04-28 09:24 | -44.04804 | 164.05240 | 36320 ft | 456 kts | 109° |
| 2026-04-28 09:24 | -44.06627 | 164.13680 | 36319 ft | 456 kts | 109° |
| 2026-04-28 09:25 | -44.08440 | 164.22128 | 36320 ft | 456 kts | 109° |
| 2026-04-28 09:25 | -44.10226 | 164.30540 | 36326 ft | 456 kts | 108° |
| 2026-04-28 09:26 | -44.12017 | 164.39011 | 36329 ft | 456 kts | 108° |
| 2026-04-28 09:26 | -44.13811 | 164.47481 | 36325 ft | 456 kts | 108° |
| 2026-04-28 09:27 | -44.16495 | 164.60191 | 36325 ft | 456 kts | 108° |
| 2026-04-28 09:27 | -44.18272 | 164.68672 | 36328 ft | 456 kts | 108° |
| 2026-04-28 09:28 | -44.20035 | 164.77166 | 36326 ft | 456 kts | 108° |
| 2026-04-28 09:28 | -44.21798 | 164.85659 | 36327 ft | 456 kts | 108° |
| 2026-04-28 09:29 | -44.23560 | 164.94171 | 36328 ft | 456 kts | 108° |
| 2026-04-28 09:29 | -44.25314 | 165.02676 | 36328 ft | 456 kts | 108° |
| 2026-04-28 09:30 | -44.27065 | 165.11190 | 36332 ft | 456 kts | 108° |
| 2026-04-28 09:30 | -44.28810 | 165.19706 | 36332 ft | 456 kts | 108° |
| 2026-04-28 09:31 | -44.30527 | 165.28170 | 36331 ft | 456 kts | 108° |
| 2026-04-28 09:31 | -44.32248 | 165.36700 | 36337 ft | 456 kts | 108° |
| 2026-04-28 09:32 | -44.33975 | 165.45235 | 36340 ft | 456 kts | 108° |
| 2026-04-28 09:32 | -44.35688 | 165.53775 | 36339 ft | 456 kts | 108° |
| 2026-04-28 09:33 | -44.37391 | 165.62317 | 36340 ft | 456 kts | 108° |
| 2026-04-28 09:33 | -44.39093 | 165.70861 | 36339 ft | 456 kts | 108° |
| 2026-04-28 09:34 | -44.40792 | 165.79410 | 36340 ft | 456 kts | 108° |
| 2026-04-28 09:34 | -44.42479 | 165.87967 | 36339 ft | 456 kts | 108° |
| 2026-04-28 09:35 | -44.44164 | 165.96512 | 36337 ft | 456 kts | 108° |
| 2026-04-28 09:35 | -44.45844 | 166.05075 | 36337 ft | 456 kts | 108° |
| 2026-04-28 09:36 | -44.47504 | 166.13644 | 36339 ft | 456 kts | 107° |
| 2026-04-28 09:36 | -44.49162 | 166.22215 | 36340 ft | 456 kts | 107° |
| 2026-04-28 09:37 | -44.50815 | 166.30740 | 36341 ft | 456 kts | 107° |
| 2026-04-28 09:37 | -44.52475 | 166.39323 | 36344 ft | 456 kts | 107° |
| 2026-04-28 09:38 | -44.54116 | 166.47904 | 36346 ft | 456 kts | 107° |
| 2026-04-28 09:38 | -44.55750 | 166.56493 | 36350 ft | 456 kts | 107° |
| 2026-04-28 09:39 | -44.57379 | 166.65077 | 36354 ft | 456 kts | 107° |
| 2026-04-28 09:39 | -44.59013 | 166.73673 | 36355 ft | 456 kts | 107° |
| 2026-04-28 09:40 | -44.60632 | 166.82262 | 36359 ft | 456 kts | 107° |
| 2026-04-28 09:40 | -44.62975 | 166.90432 | 36357 ft | 449 kts | 124° |
| 2026-04-28 09:41 | -44.66539 | 166.97603 | 36363 ft | 447 kts | 128° |
| 2026-04-28 09:41 | -44.70128 | 167.04750 | 36359 ft | 447 kts | 128° |
| 2026-04-28 09:42 | -44.73687 | 167.11857 | 36350 ft | 447 kts | 128° |
| 2026-04-28 09:42 | -44.77273 | 167.19014 | 36350 ft | 447 kts | 128° |
| 2026-04-28 09:43 | -44.80794 | 167.26235 | 36353 ft | 449 kts | 122° |
| 2026-04-28 09:43 | -44.83543 | 167.34149 | 36361 ft | 451 kts | 118° |
| 2026-04-28 09:44 | -44.86230 | 167.42135 | 36364 ft | 451 kts | 118° |
| 2026-04-28 09:44 | -44.88920 | 167.50120 | 36355 ft | 451 kts | 118° |
| 2026-04-28 09:45 | -44.91603 | 167.58123 | 36354 ft | 452 kts | 118° |
| 2026-04-28 09:45 | -44.94277 | 167.66150 | 36358 ft | 452 kts | 117° |
| 2026-04-28 09:46 | -44.96944 | 167.74182 | 36353 ft | 451 kts | 117° |
| 2026-04-28 09:46 | -44.99604 | 167.82219 | 36346 ft | 451 kts | 117° |
| 2026-04-28 09:47 | -45.02249 | 167.90202 | 36337 ft | 452 kts | 117° |
| 2026-04-28 09:47 | -45.04903 | 167.98254 | 36339 ft | 452 kts | 117° |
| 2026-04-28 09:48 | -45.07549 | 168.06326 | 36335 ft | 452 kts | 117° |
| 2026-04-28 09:48 | -45.10196 | 168.14406 | 36334 ft | 452 kts | 117° |
| 2026-04-28 09:49 | -45.12841 | 168.22482 | 36333 ft | 452 kts | 117° |
| 2026-04-28 09:49 | -45.15472 | 168.30574 | 36322 ft | 452 kts | 117° |
| 2026-04-28 09:50 | -45.18104 | 168.38675 | 36308 ft | 452 kts | 117° |
| 2026-04-28 09:50 | -45.20729 | 168.46788 | 36301 ft | 453 kts | 117° |
| 2026-04-28 09:51 | -45.23335 | 168.54905 | 36301 ft | 453 kts | 117° |
| 2026-04-28 09:51 | -45.25944 | 168.63032 | 36313 ft | 450 kts | 117° |
| 2026-04-28 09:52 | -45.28669 | 168.71007 | 36311 ft | 446 kts | 124° |
| 2026-04-28 09:52 | -45.31823 | 168.78574 | 36309 ft | 445 kts | 123° |
| 2026-04-28 09:53 | -45.34966 | 168.86137 | 36303 ft | 444 kts | 123° |
| 2026-04-28 09:53 | -45.38093 | 168.93694 | 36299 ft | 444 kts | 123° |
| 2026-04-28 09:54 | -45.41212 | 169.01272 | 36296 ft | 443 kts | 123° |
| 2026-04-28 09:54 | -45.44329 | 169.08848 | 36294 ft | 443 kts | 123° |
| 2026-04-28 09:55 | -45.47418 | 169.16393 | 36289 ft | 443 kts | 123° |
| 2026-04-28 09:55 | -45.50527 | 169.23984 | 36287 ft | 444 kts | 123° |
| 2026-04-28 09:56 | -45.53631 | 169.31590 | 36282 ft | 444 kts | 123° |
| 2026-04-28 09:56 | -45.56845 | 169.39065 | 36285 ft | 443 kts | 126° |
| 2026-04-28 09:57 | -45.60219 | 169.46434 | 36285 ft | 443 kts | 127° |
| 2026-04-28 09:57 | -45.63583 | 169.53799 | 36289 ft | 443 kts | 126° |
| 2026-04-28 09:58 | -45.67058 | 169.61054 | 36280 ft | 438 kts | 139° |
| 2026-04-28 09:58 | -45.69443 | 169.63639 | 36284 ft | 428 kts | 157° |
| 2026-04-28 09:58 | -45.72226 | 169.64968 | 36276 ft | 419 kts | 175° |
| 2026-04-28 09:59 | -45.78018 | 169.65389 | 36261 ft | 417 kts | 181° |
| 2026-04-28 09:59 | -45.83827 | 169.65639 | 36259 ft | 419 kts | 181° |
| 2026-04-28 10:00 | -45.89622 | 169.65901 | 36260 ft | 420 kts | 180° |
| 2026-04-28 10:00 | -45.95463 | 169.66196 | 36269 ft | 421 kts | 179° |
| 2026-04-28 10:01 | -45.98334 | 169.67063 | 36141 ft | 424 kts | 160° |
| 2026-04-28 10:01 | -46.00830 | 169.69299 | 35395 ft | 426 kts | 139° |
| 2026-04-28 10:01 | -46.02577 | 169.72733 | 34587 ft | 430 kts | 117° |
| 2026-04-28 10:01 | -46.03411 | 169.76867 | 33552 ft | 434 kts | 100° |
| 2026-04-28 10:02 | -46.03650 | 169.81201 | 32446 ft | 437 kts | 94° |
| 2026-04-28 10:02 | -46.03760 | 169.85595 | 31274 ft | 442 kts | 94° |
| 2026-04-28 10:02 | -46.03881 | 169.90033 | 30096 ft | 445 kts | 95° |
| 2026-04-28 10:02 | -46.03982 | 169.93047 | 29206 ft | 447 kts | 90° |
| 2026-04-28 10:03 | -46.03489 | 169.97465 | 27932 ft | 449 kts | 73° |
| 2026-04-28 10:03 | -46.02313 | 170.01617 | 26713 ft | 449 kts | 61° |
| 2026-04-28 10:03 | -46.00665 | 170.05414 | 25560 ft | 447 kts | 53° |
| 2026-04-28 10:03 | -45.98764 | 170.08935 | 24441 ft | 444 kts | 49° |
| 2026-04-28 10:04 | -45.96824 | 170.12293 | 23298 ft | 441 kts | 49° |
| 2026-04-28 10:04 | -45.94901 | 170.15713 | 22058 ft | 438 kts | 50° |
| 2026-04-28 10:04 | -45.93076 | 170.19190 | 20885 ft | 435 kts | 52° |
| 2026-04-28 10:04 | -45.91364 | 170.22744 | 19757 ft | 431 kts | 58° |
| 2026-04-28 10:05 | -45.90134 | 170.26623 | 19120 ft | 417 kts | 71° |
| 2026-04-28 10:05 | -45.89294 | 170.30463 | 18992 ft | 389 kts | 69° |
| 2026-04-28 10:05 | -45.87997 | 170.33675 | 18874 ft | 359 kts | 48° |
| 2026-04-28 10:05 | -45.86688 | 170.36538 | 18608 ft | 332 kts | 69° |
| 2026-04-28 10:06 | -45.86304 | 170.39665 | 18326 ft | 306 kts | 96° |
| 2026-04-28 10:06 | -45.86889 | 170.42436 | 18285 ft | 279 kts | 128° |
| 2026-04-28 10:06 | -45.88171 | 170.44440 | 17532 ft | 290 kts | 146° |
| 2026-04-28 10:06 | -45.90179 | 170.45841 | 14921 ft | 356 kts | 166° |
| 2026-04-28 10:07 | -45.92531 | 170.47710 | 12347 ft | 425 kts | 138° |
| 2026-04-28 10:07 | -45.94357 | 170.51000 | 11886 ft | 418 kts | 122° |
| 2026-04-28 10:07 | -45.95288 | 170.54898 | 11352 ft | 412 kts | 97° |
| 2026-04-28 10:07 | -45.95084 | 170.58923 | 10870 ft | 401 kts | 73° |
| 2026-04-28 10:08 | -45.93693 | 170.62229 | 10468 ft | 378 kts | 26° |
| 2026-04-28 10:08 | -45.91545 | 170.61745 | 10756 ft | 314 kts | 327° |
| 2026-04-28 10:08 | -45.89630 | 170.60106 | 9509 ft | 336 kts | 327° |
| 2026-04-28 10:08 | -45.87580 | 170.58303 | 8142 ft | 355 kts | 326° |
| 2026-04-28 10:09 | -45.85517 | 170.56335 | 7343 ft | 354 kts | 317° |
| 2026-04-28 10:09 | -45.84043 | 170.53657 | 7061 ft | 336 kts | 295° |
| 2026-04-28 10:09 | -45.83634 | 170.50484 | 6928 ft | 319 kts | 266° |
| 2026-04-28 10:09 | -45.84068 | 170.47435 | 6685 ft | 308 kts | 259° |
| 2026-04-28 10:10 | -45.84563 | 170.44471 | 6206 ft | 302 kts | 258° |
| 2026-04-28 10:10 | -45.85116 | 170.41623 | 5057 ft | 296 kts | 252° |
| 2026-04-28 10:10 | -45.85931 | 170.38958 | 4145 ft | 285 kts | 244° |
| 2026-04-28 10:10 | -45.86880 | 170.36553 | 3443 ft | 270 kts | 240° |
| 2026-04-28 10:11 | -45.87815 | 170.34326 | 2897 ft | 249 kts | 239° |
| 2026-04-28 10:11 | -45.88699 | 170.32286 | 2471 ft | 233 kts | 238° |
| 2026-04-28 10:11 | -45.89524 | 170.30339 | 2033 ft | 225 kts | 243° |
| 2026-04-28 10:11 | -45.90141 | 170.28327 | 1676 ft | 213 kts | 250° |
| 2026-04-28 10:12 | -45.90588 | 170.26432 | 1516 ft | 193 kts | 255° |
| 2026-04-28 10:12 | -45.90962 | 170.24638 | 1164 ft | 185 kts | 255° |
| 2026-04-28 10:12 | -45.91328 | 170.22966 | 854 ft | 164 kts | 246° |
| 2026-04-28 10:12 | -45.91933 | 170.21690 | 549 ft | 150 kts | 230° |
| 2026-04-28 10:13 | -45.92553 | 170.20487 | 135 ft | 148 kts | 237° |
| 2026-04-28 10:13 | -45.93080 | 170.19363 | 12 ft | 111 kts | 234° |
| 2026-04-28 10:13 | -45.93299 | 170.18918 | 14 ft | 4 kts | 235° |
| 2026-04-28 10:13 | -45.93318 | 170.18879 | 14 ft | 6 kts | 235° |
| 2026-04-28 10:14 | -45.93331 | 170.18808 | 15 ft | 9 kts | 259° |
| 2026-04-28 10:14 | -45.93378 | 170.18754 | 15 ft | 11 kts | 172° |
| 2026-04-28 10:14 | -45.93362 | 170.18813 | 15 ft | 8 kts | 36° |
| 2026-04-28 10:14 | -45.93316 | 170.18893 | 15 ft | 12 kts | 58° |
| 2026-04-28 10:15 | -45.93267 | 170.19006 | 17 ft | 15 kts | 57° |